sensor_id;sensor_type;location;lat;lon;timestamp;pressure;altitude;pressure_sealevel;temperature;humidity
75692;BME280;64307;52.508;6.090;2022-12-07T00:01:37;101785.97;;;3.71;97.18
75692;BME280;64307;52.508;6.090;2022-12-07T00:04:07;101786.31;;;3.61;96.98
75692;BME280;64307;52.508;6.090;2022-12-07T00:06:40;101782.88;;;3.64;97.20
75692;BME280;64307;52.508;6.090;2022-12-07T00:09:09;101786.78;;;3.63;96.88
75692;BME280;64307;52.508;6.090;2022-12-07T00:11:35;101797.63;;;3.68;97.19
75692;BME280;64307;52.508;6.090;2022-12-07T00:14:05;101785.63;;;3.64;97.21
75692;BME280;64307;52.508;6.090;2022-12-07T00:16:32;101779.31;;;3.64;96.82
75692;BME280;64307;52.508;6.090;2022-12-07T00:18:58;101783.56;;;3.61;97.08
75692;BME280;64307;52.508;6.090;2022-12-07T00:21:29;101771.38;;;3.62;96.62
75692;BME280;64307;52.508;6.090;2022-12-07T00:23:55;101768.16;;;3.52;97.14
75692;BME280;64307;52.508;6.090;2022-12-07T00:26:32;101779.03;;;3.57;96.68
75692;BME280;64307;52.508;6.090;2022-12-07T00:29:00;101773.03;;;3.46;96.80
75692;BME280;64307;52.508;6.090;2022-12-07T00:31:29;101775.16;;;3.41;96.91
75692;BME280;64307;52.508;6.090;2022-12-07T00:33:57;101773.19;;;3.41;97.43
75692;BME280;64307;52.508;6.090;2022-12-07T00:36:23;101774.69;;;3.39;97.83
75692;BME280;64307;52.508;6.090;2022-12-07T00:38:48;101772.72;;;3.39;97.30
75692;BME280;64307;52.508;6.090;2022-12-07T00:41:19;101762.69;;;3.34;98.02
75692;BME280;64307;52.508;6.090;2022-12-07T00:43:46;101775.47;;;3.39;97.11
75692;BME280;64307;52.508;6.090;2022-12-07T00:46:13;101765.75;;;3.33;97.38
75692;BME280;64307;52.508;6.090;2022-12-07T00:48:38;101760.25;;;3.24;96.87
75692;BME280;64307;52.508;6.090;2022-12-07T00:51:04;101770.44;;;3.32;96.95
75692;BME280;64307;52.508;6.090;2022-12-07T00:53:30;101769.34;;;3.25;97.49
75692;BME280;64307;52.508;6.090;2022-12-07T00:55:56;101767.25;;;3.22;97.55
75692;BME280;64307;52.508;6.090;2022-12-07T00:58:23;101764.16;;;3.23;97.84
75692;BME280;64307;52.508;6.090;2022-12-07T01:00:49;101761.56;;;3.27;97.75
75692;BME280;64307;52.508;6.090;2022-12-07T01:03:15;101752.53;;;3.18;97.60
75692;BME280;64307;52.508;6.090;2022-12-07T01:05:49;101761.41;;;3.23;97.22
75692;BME280;64307;52.508;6.090;2022-12-07T01:08:15;101762.84;;;3.21;96.76
75692;BME280;64307;52.508;6.090;2022-12-07T01:10:40;101756.25;;;3.13;97.05
75692;BME280;64307;52.508;6.090;2022-12-07T01:13:05;101763.53;;;3.18;96.87
75692;BME280;64307;52.508;6.090;2022-12-07T01:15:31;101759.16;;;3.17;97.76
75692;BME280;64307;52.508;6.090;2022-12-07T01:17:56;101755.56;;;3.16;97.61
75692;BME280;64307;52.508;6.090;2022-12-07T01:20:22;101757.53;;;3.16;97.00
75692;BME280;64307;52.508;6.090;2022-12-07T01:22:47;101755.75;;;3.20;97.20
75692;BME280;64307;52.508;6.090;2022-12-07T01:25:12;101744.91;;;3.23;96.43
75692;BME280;64307;52.508;6.090;2022-12-07T01:27:38;101763.19;;;3.37;96.36
75692;BME280;64307;52.508;6.090;2022-12-07T01:30:05;101760.91;;;3.39;96.83
75692;BME280;64307;52.508;6.090;2022-12-07T01:32:32;101758.47;;;3.37;96.28
75692;BME280;64307;52.508;6.090;2022-12-07T01:34:57;101767.41;;;3.34;96.25
75692;BME280;64307;52.508;6.090;2022-12-07T01:37:23;101751.03;;;3.20;96.16
75692;BME280;64307;52.508;6.090;2022-12-07T01:39:49;101762.53;;;3.31;96.57
75692;BME280;64307;52.508;6.090;2022-12-07T01:42:15;101756.06;;;3.27;96.22
75692;BME280;64307;52.508;6.090;2022-12-07T01:47:46;101757.19;;;3.26;95.87
75692;BME280;64307;52.508;6.090;2022-12-07T01:50:14;101759.00;;;3.22;95.64
75692;BME280;64307;52.508;6.090;2022-12-07T01:52:40;101750.25;;;3.11;95.81
75692;BME280;64307;52.508;6.090;2022-12-07T01:55:09;101760.78;;;3.09;96.70
75692;BME280;64307;52.508;6.090;2022-12-07T01:57:40;101753.50;;;3.05;96.32
75692;BME280;64307;52.508;6.090;2022-12-07T02:00:07;101755.28;;;3.01;96.47
75692;BME280;64307;52.508;6.090;2022-12-07T02:02:35;101757.06;;;3.14;95.82
75692;BME280;64307;52.508;6.090;2022-12-07T02:05:04;101762.38;;;3.10;96.32
75692;BME280;64307;52.508;6.090;2022-12-07T02:07:31;101762.56;;;3.14;96.55
75692;BME280;64307;52.508;6.090;2022-12-07T02:09:57;101760.94;;;3.30;95.61
75692;BME280;64307;52.508;6.090;2022-12-07T02:12:36;101758.47;;;3.37;95.25
75692;BME280;64307;52.508;6.090;2022-12-07T02:15:01;101761.06;;;3.51;95.71
75692;BME280;64307;52.508;6.090;2022-12-07T02:18:16;101759.88;;;3.60;95.11
75692;BME280;64307;52.508;6.090;2022-12-07T02:23:07;101762.59;;;3.77;93.80
75692;BME280;64307;52.508;6.090;2022-12-07T02:28:45;101759.63;;;3.91;93.81
75692;BME280;64307;52.508;6.090;2022-12-07T02:31:15;101764.75;;;4.09;93.32
75692;BME280;64307;52.508;6.090;2022-12-07T02:36:36;101749.13;;;4.22;92.33
75692;BME280;64307;52.508;6.090;2022-12-07T02:39:18;101738.06;;;4.31;92.15
75692;BME280;64307;52.508;6.090;2022-12-07T02:41:55;101744.34;;;4.31;92.35
75692;BME280;64307;52.508;6.090;2022-12-07T02:44:25;101740.28;;;4.37;91.53
75692;BME280;64307;52.508;6.090;2022-12-07T02:47:02;101739.63;;;4.40;91.33
75692;BME280;64307;52.508;6.090;2022-12-07T02:49:29;101734.56;;;4.42;91.51
75692;BME280;64307;52.508;6.090;2022-12-07T02:51:55;101738.41;;;4.50;91.38
75692;BME280;64307;52.508;6.090;2022-12-07T02:54:21;101741.16;;;4.50;91.54
75692;BME280;64307;52.508;6.090;2022-12-07T02:56:57;101741.34;;;4.53;91.58
75692;BME280;64307;52.508;6.090;2022-12-07T03:02:35;101739.34;;;4.54;91.84
75692;BME280;64307;52.508;6.090;2022-12-07T03:08:13;101751.34;;;4.58;91.42
75692;BME280;64307;52.508;6.090;2022-12-07T03:13:58;101747.75;;;4.66;91.68
75692;BME280;64307;52.508;6.090;2022-12-07T03:16:27;101748.75;;;4.61;91.97
75692;BME280;64307;52.508;6.090;2022-12-07T03:19:29;101746.28;;;4.60;91.63
75692;BME280;64307;52.508;6.090;2022-12-07T03:21:52;101741.13;;;4.58;91.98
75692;BME280;64307;52.508;6.090;2022-12-07T03:24:21;101735.34;;;4.51;91.64
75692;BME280;64307;52.508;6.090;2022-12-07T03:27:18;101746.16;;;4.56;91.92
75692;BME280;64307;52.508;6.090;2022-12-07T03:30:09;101749.13;;;4.51;91.48
75692;BME280;64307;52.508;6.090;2022-12-07T03:32:45;101743.44;;;4.48;91.84
75692;BME280;64307;52.508;6.090;2022-12-07T03:35:24;101744.31;;;4.40;91.83
75692;BME280;64307;52.508;6.090;2022-12-07T03:37:57;101739.19;;;4.30;92.25
75692;BME280;64307;52.508;6.090;2022-12-07T03:42:55;101735.38;;;4.13;92.80
75692;BME280;64307;52.508;6.090;2022-12-07T03:45:42;101719.31;;;4.15;92.65
75692;BME280;64307;52.508;6.090;2022-12-07T03:48:33;101714.72;;;4.28;92.44
75692;BME280;64307;52.508;6.090;2022-12-07T03:51:01;101726.69;;;4.32;92.48
75692;BME280;64307;52.508;6.090;2022-12-07T03:53:36;101718.56;;;4.36;91.99
75692;BME280;64307;52.508;6.090;2022-12-07T03:56:05;101714.19;;;4.35;91.81
75692;BME280;64307;52.508;6.090;2022-12-07T03:58:32;101722.63;;;4.30;92.43
75692;BME280;64307;52.508;6.090;2022-12-07T04:00:59;101717.66;;;4.23;92.51
75692;BME280;64307;52.508;6.090;2022-12-07T04:03:24;101718.19;;;4.17;93.05
75692;BME280;64307;52.508;6.090;2022-12-07T04:05:49;101722.59;;;4.09;92.77
75692;BME280;64307;52.508;6.090;2022-12-07T04:08:15;101724.22;;;4.10;93.50
75692;BME280;64307;52.508;6.090;2022-12-07T04:10:40;101705.78;;;4.02;93.68
75692;BME280;64307;52.508;6.090;2022-12-07T04:13:05;101729.44;;;4.03;93.72
75692;BME280;64307;52.508;6.090;2022-12-07T04:15:30;101722.53;;;3.88;94.00
75692;BME280;64307;52.508;6.090;2022-12-07T04:17:56;101717.84;;;3.80;94.36
75692;BME280;64307;52.508;6.090;2022-12-07T04:20:21;101723.56;;;3.75;94.75
75692;BME280;64307;52.508;6.090;2022-12-07T04:22:47;101718.22;;;3.70;95.15
75692;BME280;64307;52.508;6.090;2022-12-07T04:25:12;101712.91;;;3.65;94.98
75692;BME280;64307;52.508;6.090;2022-12-07T04:27:37;101721.00;;;3.62;95.78
75692;BME280;64307;52.508;6.090;2022-12-07T04:30:03;101705.81;;;3.47;96.15
75692;BME280;64307;52.508;6.090;2022-12-07T04:32:29;101706.28;;;3.49;95.89
75692;BME280;64307;52.508;6.090;2022-12-07T04:34:54;101707.78;;;3.47;95.98
75692;BME280;64307;52.508;6.090;2022-12-07T04:37:19;101711.50;;;3.51;95.71
75692;BME280;64307;52.508;6.090;2022-12-07T04:39:44;101703.38;;;3.54;95.22
75692;BME280;64307;52.508;6.090;2022-12-07T04:42:10;101712.91;;;3.65;95.14
75692;BME280;64307;52.508;6.090;2022-12-07T04:44:37;101711.13;;;3.61;95.11
75692;BME280;64307;52.508;6.090;2022-12-07T04:47:03;101712.94;;;3.57;94.95
75692;BME280;64307;52.508;6.090;2022-12-07T04:49:28;101715.50;;;3.53;95.32
75692;BME280;64307;52.508;6.090;2022-12-07T04:51:54;101718.44;;;3.57;95.04
75692;BME280;64307;52.508;6.090;2022-12-07T04:54:19;101725.38;;;3.63;95.23
75692;BME280;64307;52.508;6.090;2022-12-07T04:56:45;101716.94;;;3.68;94.15
75692;BME280;64307;52.508;6.090;2022-12-07T04:59:15;101713.88;;;3.69;94.59
75692;BME280;64307;52.508;6.090;2022-12-07T05:01:40;101707.22;;;3.62;94.30
75692;BME280;64307;52.508;6.090;2022-12-07T05:04:06;101707.06;;;3.67;94.10
75692;BME280;64307;52.508;6.090;2022-12-07T05:06:32;101704.81;;;3.60;94.58
75692;BME280;64307;52.508;6.090;2022-12-07T05:08:57;101693.00;;;3.51;94.64
75692;BME280;64307;52.508;6.090;2022-12-07T05:11:22;101713.09;;;3.52;94.86
75692;BME280;64307;52.508;6.090;2022-12-07T05:14:20;101701.94;;;3.48;94.54
75692;BME280;64307;52.508;6.090;2022-12-07T05:16:48;101706.13;;;3.54;94.87
75692;BME280;64307;52.508;6.090;2022-12-07T05:19:13;101702.38;;;3.59;94.88
75692;BME280;64307;52.508;6.090;2022-12-07T05:21:39;101698.50;;;3.51;94.49
75692;BME280;64307;52.508;6.090;2022-12-07T05:24:05;101713.56;;;3.62;94.17
75692;BME280;64307;52.508;6.090;2022-12-07T05:26:31;101698.81;;;3.58;95.19
75692;BME280;64307;52.508;6.090;2022-12-07T05:28:57;101700.25;;;3.64;94.83
75692;BME280;64307;52.508;6.090;2022-12-07T05:31:23;101700.13;;;3.61;95.42
75692;BME280;64307;52.508;6.090;2022-12-07T05:33:49;101697.72;;;3.51;95.64
75692;BME280;64307;52.508;6.090;2022-12-07T05:36:14;101700.63;;;3.46;95.58
75692;BME280;64307;52.508;6.090;2022-12-07T05:38:40;101707.13;;;3.41;96.05
75692;BME280;64307;52.508;6.090;2022-12-07T05:41:06;101703.59;;;3.32;95.43
75692;BME280;64307;52.508;6.090;2022-12-07T05:43:33;101706.66;;;3.30;95.83
75692;BME280;64307;52.508;6.090;2022-12-07T05:45:58;101700.53;;;3.25;95.30
75692;BME280;64307;52.508;6.090;2022-12-07T05:48:25;101698.44;;;3.22;96.50
75692;BME280;64307;52.508;6.090;2022-12-07T05:50:51;101699.91;;;3.19;95.71
75692;BME280;64307;52.508;6.090;2022-12-07T05:53:17;101696.66;;;3.17;95.68
75692;BME280;64307;52.508;6.090;2022-12-07T05:55:42;101699.25;;;3.14;96.15
75692;BME280;64307;52.508;6.090;2022-12-07T05:58:08;101698.59;;;3.08;95.54
75692;BME280;64307;52.508;6.090;2022-12-07T06:00:54;101687.94;;;2.98;96.16
75692;BME280;64307;52.508;6.090;2022-12-07T06:03:19;101704.28;;;3.03;95.93
75692;BME280;64307;52.508;6.090;2022-12-07T06:05:45;101696.38;;;2.93;95.94
75692;BME280;64307;52.508;6.090;2022-12-07T06:08:10;101693.94;;;2.92;96.73
75692;BME280;64307;52.508;6.090;2022-12-07T06:10:35;101682.91;;;2.92;96.32
75692;BME280;64307;52.508;6.090;2022-12-07T06:13:01;101696.69;;;2.92;96.31
75692;BME280;64307;52.508;6.090;2022-12-07T06:15:26;101690.22;;;2.88;95.90
75692;BME280;64307;52.508;6.090;2022-12-07T06:17:51;101687.47;;;2.79;96.13
75692;BME280;64307;52.508;6.090;2022-12-07T06:20:16;101692.66;;;2.81;96.33
75692;BME280;64307;52.508;6.090;2022-12-07T06:22:42;101692.66;;;2.81;96.25
75692;BME280;64307;52.508;6.090;2022-12-07T06:25:07;101694.09;;;2.87;96.74
75692;BME280;64307;52.508;6.090;2022-12-07T06:27:33;101693.44;;;2.90;95.78
75692;BME280;64307;52.508;6.090;2022-12-07T06:30:00;101704.59;;;3.02;95.36
75692;BME280;64307;52.508;6.090;2022-12-07T06:32:31;101710.75;;;3.07;96.23
75692;BME280;64307;52.508;6.090;2022-12-07T06:34:56;101704.28;;;3.12;95.66
75692;BME280;64307;52.508;6.090;2022-12-07T06:37:21;101693.78;;;3.05;95.48
75692;BME280;64307;52.508;6.090;2022-12-07T06:39:47;101708.97;;;3.20;94.92
75692;BME280;64307;52.508;6.090;2022-12-07T06:42:12;101697.97;;;3.20;94.19
75692;BME280;64307;52.508;6.090;2022-12-07T06:44:37;101707.63;;;3.34;93.91
75692;BME280;64307;52.508;6.090;2022-12-07T06:47:02;101707.59;;;3.43;93.69
75692;BME280;64307;52.508;6.090;2022-12-07T06:49:28;101711.84;;;3.41;93.33
75692;BME280;64307;52.508;6.090;2022-12-07T06:51:53;101707.94;;;3.33;93.18
75692;BME280;64307;52.508;6.090;2022-12-07T06:54:18;101707.00;;;3.20;93.75
75692;BME280;64307;52.508;6.090;2022-12-07T06:56:44;101704.78;;;3.14;94.16
75692;BME280;64307;52.508;6.090;2022-12-07T06:59:09;101712.53;;;3.03;94.44
75692;BME280;64307;52.508;6.090;2022-12-07T07:01:35;101715.59;;;3.02;94.72
75692;BME280;64307;52.508;6.090;2022-12-07T07:04:01;101715.78;;;2.97;94.58
75692;BME280;64307;52.508;6.090;2022-12-07T07:06:26;101715.94;;;2.92;94.10
75692;BME280;64307;52.508;6.090;2022-12-07T07:08:52;101713.66;;;2.94;94.85
75692;BME280;64307;52.508;6.090;2022-12-07T07:11:17;101715.94;;;3.00;93.92
75692;BME280;64307;52.508;6.090;2022-12-07T07:13:42;101716.91;;;3.04;93.92
75692;BME280;64307;52.508;6.090;2022-12-07T07:16:08;101721.44;;;3.09;94.42
75692;BME280;64307;52.508;6.090;2022-12-07T07:18:34;101724.53;;;3.07;93.88
75692;BME280;64307;52.508;6.090;2022-12-07T07:21:00;101724.81;;;3.06;94.06
75692;BME280;64307;52.508;6.090;2022-12-07T07:23:26;101717.72;;;3.05;93.87
75692;BME280;64307;52.508;6.090;2022-12-07T07:25:51;101724.66;;;3.11;94.43
75692;BME280;64307;52.508;6.090;2022-12-07T07:28:17;101729.53;;;3.14;94.05
75692;BME280;64307;52.508;6.090;2022-12-07T07:30:42;101718.34;;;3.19;94.01
75692;BME280;64307;52.508;6.090;2022-12-07T07:33:09;101728.69;;;3.30;93.48
75692;BME280;64307;52.508;6.090;2022-12-07T07:35:34;101725.28;;;3.42;93.83
75692;BME280;64307;52.508;6.090;2022-12-07T07:38:00;101723.47;;;3.55;93.30
75692;BME280;64307;52.508;6.090;2022-12-07T07:40:26;101716.47;;;3.57;92.45
75692;BME280;64307;52.508;6.090;2022-12-07T07:42:53;101724.25;;;3.55;92.90
75692;BME280;64307;52.508;6.090;2022-12-07T07:45:20;101724.94;;;3.52;92.88
75692;BME280;64307;52.508;6.090;2022-12-07T07:47:46;101725.09;;;3.47;92.67
75692;BME280;64307;52.508;6.090;2022-12-07T07:50:11;101717.00;;;3.42;92.71
75692;BME280;64307;52.508;6.090;2022-12-07T07:52:37;101720.22;;;3.53;92.98
75692;BME280;64307;52.508;6.090;2022-12-07T07:55:02;101725.88;;;3.65;92.68
75692;BME280;64307;52.508;6.090;2022-12-07T07:57:27;101723.38;;;3.72;92.59
75692;BME280;64307;52.508;6.090;2022-12-07T07:59:53;101725.16;;;3.76;92.22
75692;BME280;64307;52.508;6.090;2022-12-07T08:02:21;101716.41;;;3.74;92.37
75692;BME280;64307;52.508;6.090;2022-12-07T08:04:47;101723.69;;;3.79;92.03
75692;BME280;64307;52.508;6.090;2022-12-07T08:07:14;101722.88;;;3.78;92.56
75692;BME280;64307;52.508;6.090;2022-12-07T08:09:39;101719.16;;;3.83;92.07
75692;BME280;64307;52.508;6.090;2022-12-07T08:12:05;101730.16;;;3.83;92.10
75692;BME280;64307;52.508;6.090;2022-12-07T08:14:30;101725.94;;;3.85;92.78
75692;BME280;64307;52.508;6.090;2022-12-07T08:16:56;101722.53;;;3.88;92.11
75692;BME280;64307;52.508;6.090;2022-12-07T08:19:23;101733.88;;;3.87;92.37
75692;BME280;64307;52.508;6.090;2022-12-07T08:21:49;101728.03;;;3.88;92.57
75692;BME280;64307;52.508;6.090;2022-12-07T08:24:14;101723.19;;;3.85;91.96
75692;BME280;64307;52.508;6.090;2022-12-07T08:26:40;101729.50;;;3.86;91.77
75692;BME280;64307;52.508;6.090;2022-12-07T08:29:05;101726.25;;;3.84;91.97
75692;BME280;64307;52.508;6.090;2022-12-07T08:31:31;101726.88;;;3.98;91.41
75692;BME280;64307;52.508;6.090;2022-12-07T08:33:56;101730.31;;;4.24;90.38
75692;BME280;64307;52.508;6.090;2022-12-07T08:36:22;101735.72;;;4.41;90.01
75692;BME280;64307;52.508;6.090;2022-12-07T08:38:48;101731.69;;;4.39;90.19
75692;BME280;64307;52.508;6.090;2022-12-07T08:41:13;101739.75;;;4.44;89.34
75692;BME280;64307;52.508;6.090;2022-12-07T08:43:38;101742.81;;;4.51;89.33
75692;BME280;64307;52.508;6.090;2022-12-07T08:49:08;101747.50;;;4.50;89.10
75692;BME280;64307;52.508;6.090;2022-12-07T08:51:35;101748.41;;;4.63;89.46
75692;BME280;64307;52.508;6.090;2022-12-07T08:54:04;101730.22;;;4.62;88.78
75692;BME280;64307;52.508;6.090;2022-12-07T08:56:31;101732.72;;;4.96;87.13
75692;BME280;64307;52.508;6.090;2022-12-07T08:58:57;101729.75;;;5.01;87.02
75692;BME280;64307;52.508;6.090;2022-12-07T09:01:23;101713.34;;;4.84;87.06
75692;BME280;64307;52.508;6.090;2022-12-07T09:03:48;101718.94;;;4.75;87.61
75692;BME280;64307;52.508;6.090;2022-12-07T09:06:13;101720.81;;;4.63;88.52
75692;BME280;64307;52.508;6.090;2022-12-07T09:08:42;101722.91;;;4.66;88.59
75692;BME280;64307;52.508;6.090;2022-12-07T09:11:09;101720.34;;;4.61;88.64
75692;BME280;64307;52.508;6.090;2022-12-07T09:13:34;101712.47;;;4.71;88.33
75692;BME280;64307;52.508;6.090;2022-12-07T09:15:59;101721.34;;;4.77;88.02
75692;BME280;64307;52.508;6.090;2022-12-07T09:18:25;101711.00;;;4.74;88.57
75692;BME280;64307;52.508;6.090;2022-12-07T09:20:51;101720.81;;;4.83;88.22
75692;BME280;64307;52.508;6.090;2022-12-07T09:23:16;101719.19;;;4.82;88.40
75692;BME280;64307;52.508;6.090;2022-12-07T09:25:42;101729.50;;;4.94;88.46
75692;BME280;64307;52.508;6.090;2022-12-07T09:28:07;101728.41;;;5.07;87.95
75692;BME280;64307;52.508;6.090;2022-12-07T09:30:33;101716.28;;;5.20;87.46
75692;BME280;64307;52.508;6.090;2022-12-07T09:32:58;101727.13;;;5.70;86.06
75692;BME280;64307;52.508;6.090;2022-12-07T09:35:24;101727.97;;;7.78;78.15
75692;BME280;64307;52.508;6.090;2022-12-07T09:37:50;101724.13;;;10.76;66.88
75692;BME280;64307;52.508;6.090;2022-12-07T09:40:16;101727.34;;;9.20;71.27
75692;BME280;64307;52.508;6.090;2022-12-07T09:42:45;101734.47;;;7.26;77.48
75692;BME280;64307;52.508;6.090;2022-12-07T09:45:19;101719.59;;;7.19;79.40
75692;BME280;64307;52.508;6.090;2022-12-07T09:47:46;101730.72;;;9.29;72.35
75692;BME280;64307;52.508;6.090;2022-12-07T09:50:17;101722.47;;;13.27;58.49
75692;BME280;64307;52.508;6.090;2022-12-07T09:52:44;101725.72;;;15.05;51.55
75692;BME280;64307;52.508;6.090;2022-12-07T09:55:13;101730.25;;;12.90;56.69
75692;BME280;64307;52.508;6.090;2022-12-07T09:57:39;101731.88;;;8.89;70.45
75692;BME280;64307;52.508;6.090;2022-12-07T10:00:12;101732.94;;;7.72;75.59
75692;BME280;64307;52.508;6.090;2022-12-07T10:02:40;101731.38;;;7.43;76.95
75692;BME280;64307;52.508;6.090;2022-12-07T10:05:12;101738.88;;;8.02;75.57
75692;BME280;64307;52.508;6.090;2022-12-07T10:07:38;101723.97;;;7.47;75.95
75692;BME280;64307;52.508;6.090;2022-12-07T10:10:04;101729.50;;;7.47;77.54
75692;BME280;64307;52.508;6.090;2022-12-07T10:15:19;101718.50;;;11.02;61.78
75692;BME280;64307;52.508;6.090;2022-12-07T10:17:51;101717.63;;;9.29;69.57
75692;BME280;64307;52.508;6.090;2022-12-07T10:23:02;101712.38;;;7.58;76.43
75692;BME280;64307;52.508;6.090;2022-12-07T10:25:33;101713.53;;;7.57;76.96
75692;BME280;64307;52.508;6.090;2022-12-07T10:28:15;101705.94;;;7.85;76.17
75692;BME280;64307;52.508;6.090;2022-12-07T10:31:00;101706.13;;;7.76;76.56
75692;BME280;64307;52.508;6.090;2022-12-07T10:33:31;101703.47;;;7.80;76.84
75692;BME280;64307;52.508;6.090;2022-12-07T10:35:57;101686.63;;;11.00;66.42
75692;BME280;64307;52.508;6.090;2022-12-07T10:38:22;101687.81;;;13.67;56.01
75692;BME280;64307;52.508;6.090;2022-12-07T10:41:05;101684.06;;;9.83;66.49
75692;BME280;64307;52.508;6.090;2022-12-07T10:43:31;101699.81;;;8.57;72.20
75692;BME280;64307;52.508;6.090;2022-12-07T10:55:08;101666.59;;;19.10;40.10
75692;BME280;64307;52.508;6.090;2022-12-07T11:00:25;101665.41;;;19.07;39.72
75692;BME280;64307;52.508;6.090;2022-12-07T11:03:14;101659.66;;;18.29;41.15
75692;BME280;64307;52.508;6.090;2022-12-07T11:05:52;101659.72;;;18.91;40.06
75692;BME280;64307;52.508;6.090;2022-12-07T11:14:33;101656.59;;;17.96;42.72
75692;BME280;64307;52.508;6.090;2022-12-07T11:17:07;101644.34;;;17.83;42.31
75692;BME280;64307;52.508;6.090;2022-12-07T11:20:15;101648.78;;;16.64;44.20
75692;BME280;64307;52.508;6.090;2022-12-07T11:23:18;101649.06;;;10.90;62.27
75692;BME280;64307;52.508;6.090;2022-12-07T11:25:51;101651.13;;;9.85;67.25
75692;BME280;64307;52.508;6.090;2022-12-07T11:31:22;101632.44;;;11.71;61.38
75692;BME280;64307;52.508;6.090;2022-12-07T11:34:08;101626.91;;;12.32;58.21
75692;BME280;64307;52.508;6.090;2022-12-07T11:36:40;101629.78;;;9.70;65.65
75692;BME280;64307;52.508;6.090;2022-12-07T11:41:56;101628.97;;;8.13;72.01
75692;BME280;64307;52.508;6.090;2022-12-07T11:44:38;101634.31;;;7.87;71.85
75692;BME280;64307;52.508;6.090;2022-12-07T11:47:09;101632.00;;;7.73;72.85
75692;BME280;64307;52.508;6.090;2022-12-07T11:50:05;101633.44;;;7.67;74.22
75692;BME280;64307;52.508;6.090;2022-12-07T11:52:43;101617.59;;;7.83;72.93
75692;BME280;64307;52.508;6.090;2022-12-07T11:55:47;101622.25;;;7.79;72.36
75692;BME280;64307;52.508;6.090;2022-12-07T12:04:02;101604.06;;;7.97;69.72
75692;BME280;64307;52.508;6.090;2022-12-07T12:06:31;101604.75;;;8.45;68.74
75692;BME280;64307;52.508;6.090;2022-12-07T12:09:04;101593.34;;;9.30;65.25
75692;BME280;64307;52.508;6.090;2022-12-07T12:19:56;101595.41;;;9.14;65.96
75692;BME280;64307;52.508;6.090;2022-12-07T12:22:32;101575.75;;;8.80;68.30
75692;BME280;64307;52.508;6.090;2022-12-07T12:24:59;101574.66;;;8.47;68.31
75692;BME280;64307;52.508;6.090;2022-12-07T12:27:27;101583.94;;;7.85;71.50
75692;BME280;64307;52.508;6.090;2022-12-07T12:29:59;101585.56;;;7.70;73.06
75692;BME280;64307;52.508;6.090;2022-12-07T12:35:02;101587.78;;;7.96;71.71
75692;BME280;64307;52.508;6.090;2022-12-07T12:42:57;101570.28;;;8.11;70.58
75692;BME280;64307;52.508;6.090;2022-12-07T12:45:23;101573.59;;;8.16;70.75
75692;BME280;64307;52.508;6.090;2022-12-07T12:48:27;101583.94;;;7.85;71.47
75692;BME280;64307;52.508;6.090;2022-12-07T12:54:12;101588.38;;;7.55;74.44
75692;BME280;64307;52.508;6.090;2022-12-07T12:59:55;101575.94;;;7.17;75.82
75692;BME280;64307;52.508;6.090;2022-12-07T13:02:32;101566.00;;;7.16;76.08
75692;BME280;64307;52.508;6.090;2022-12-07T13:05:02;101570.56;;;7.09;75.98
75692;BME280;64307;52.508;6.090;2022-12-07T13:21:02;101552.66;;;6.91;76.22
75692;BME280;64307;52.508;6.090;2022-12-07T13:23:31;101559.97;;;6.83;76.06
75692;BME280;64307;52.508;6.090;2022-12-07T13:26:19;101546.22;;;6.71;76.65
75692;BME280;64307;52.508;6.090;2022-12-07T13:28:49;101548.50;;;6.69;76.83
75692;BME280;64307;52.508;6.090;2022-12-07T13:31:19;101539.28;;;6.65;76.00
75692;BME280;64307;52.508;6.090;2022-12-07T13:33:48;101531.50;;;6.55;75.98
75692;BME280;64307;52.508;6.090;2022-12-07T13:36:25;101527.50;;;6.52;73.81
75692;BME280;64307;52.508;6.090;2022-12-07T13:38:57;101527.94;;;6.54;74.88
75692;BME280;64307;52.508;6.090;2022-12-07T13:41:25;101529.91;;;6.54;75.88
75692;BME280;64307;52.508;6.090;2022-12-07T13:46:41;101532.13;;;6.48;75.64
75692;BME280;64307;52.508;6.090;2022-12-07T13:51:42;101517.19;;;6.37;75.63
75692;BME280;64307;52.508;6.090;2022-12-07T13:54:10;101517.09;;;6.34;76.09
75692;BME280;64307;52.508;6.090;2022-12-07T13:56:36;101511.56;;;6.34;76.14
75692;BME280;64307;52.508;6.090;2022-12-07T13:59:02;101513.97;;;6.35;76.92
75692;BME280;64307;52.508;6.090;2022-12-07T14:01:30;101523.22;;;6.27;76.99
75692;BME280;64307;52.508;6.090;2022-12-07T14:04:16;101518.38;;;6.24;76.68
75692;BME280;64307;52.508;6.090;2022-12-07T14:06:51;101509.97;;;6.21;77.03
75692;BME280;64307;52.508;6.090;2022-12-07T14:09:21;101514.91;;;6.27;77.51
75692;BME280;64307;52.508;6.090;2022-12-07T14:11:48;101503.31;;;6.10;77.26
75692;BME280;64307;52.508;6.090;2022-12-07T14:14:18;101509.06;;;6.17;78.64
75692;BME280;64307;52.508;6.090;2022-12-07T14:16:56;101500.56;;;6.10;78.66
75692;BME280;64307;52.508;6.090;2022-12-07T14:19:44;101504.69;;;6.16;78.60
75692;BME280;64307;52.508;6.090;2022-12-07T14:22:34;101504.03;;;6.07;78.84
75692;BME280;64307;52.508;6.090;2022-12-07T14:25:14;101502.53;;;6.09;78.25
75692;BME280;64307;52.508;6.090;2022-12-07T14:30:16;101501.50;;;6.02;78.42
75692;BME280;64307;52.508;6.090;2022-12-07T14:32:43;101504.53;;;5.97;77.93
75692;BME280;64307;52.508;6.090;2022-12-07T14:35:15;101497.06;;;5.97;78.94
75692;BME280;64307;52.508;6.090;2022-12-07T14:37:43;101497.38;;;5.96;78.54
75692;BME280;64307;52.508;6.090;2022-12-07T14:40:16;101492.44;;;5.89;78.26
75692;BME280;64307;52.508;6.090;2022-12-07T14:42:43;101491.31;;;5.78;78.89
75692;BME280;64307;52.508;6.090;2022-12-07T14:45:18;101484.41;;;5.72;78.86
75692;BME280;64307;52.508;6.090;2022-12-07T14:47:45;101484.50;;;5.75;78.69
75692;BME280;64307;52.508;6.090;2022-12-07T14:50:12;101477.97;;;5.68;78.21
75692;BME280;64307;52.508;6.090;2022-12-07T14:52:39;101478.66;;;5.65;79.00
75692;BME280;64307;52.508;6.090;2022-12-07T14:55:05;101477.84;;;5.64;79.85
75692;BME280;64307;52.508;6.090;2022-12-07T14:57:37;101471.66;;;5.55;79.92